createdAt,value
2022-08-05T00:01:35.532Z,81.96
2022-08-05T00:04:05.225Z,82.45
2022-08-05T00:06:36.246Z,82.08
2022-08-05T00:09:04.633Z,81.97
2022-08-05T00:11:49.068Z,82.80
2022-08-05T00:14:17.526Z,82.64
2022-08-05T00:16:53.306Z,82.06
2022-08-05T00:19:22.589Z,82.88
2022-08-05T00:21:51.125Z,82.22
2022-08-05T00:24:24.389Z,82.76
2022-08-05T00:26:54.100Z,82.71
2022-08-05T00:29:25.299Z,82.15
2022-08-05T00:32:13.363Z,81.80
2022-08-05T00:34:54.550Z,82.81
2022-08-05T00:37:50.794Z,82.40
2022-08-05T00:40:17.896Z,81.00
2022-08-05T00:43:00.177Z,77.80
2022-08-05T00:45:42.877Z,78.94
2022-08-05T00:48:12.925Z,77.40
2022-08-05T00:50:41.364Z,77.29
2022-08-05T00:54:00.085Z,78.56
2022-08-05T00:56:01.847Z,79.37
2022-08-05T00:58:30.665Z,80.70
2022-08-05T01:00:58.249Z,81.91
2022-08-05T01:03:30.943Z,85.71
2022-08-05T01:06:01.388Z,89.65
2022-08-05T01:08:43.446Z,90.15
2022-08-05T01:11:22.646Z,91.99
2022-08-05T01:14:03.508Z,93.20
2022-08-05T01:16:36.845Z,94.45
2022-08-05T01:19:14.843Z,96.59
2022-08-05T01:21:58.183Z,97.11
2022-08-05T01:24:41.452Z,97.67
2022-08-05T01:27:27.088Z,97.28
2022-08-05T01:30:03.965Z,96.51
2022-08-05T01:32:33.387Z,95.87
2022-08-05T01:35:04.200Z,97.63
2022-08-05T01:37:44.298Z,98.23
2022-08-05T01:40:13.697Z,98.48
2022-08-05T01:42:46.341Z,98.64
2022-08-05T01:45:16.615Z,99.03
2022-08-05T01:47:45.625Z,98.99
2022-08-05T01:50:18.925Z,100.00
2022-08-05T01:52:58.971Z,100.00
2022-08-05T01:55:27.950Z,100.00
2022-08-05T01:58:14.773Z,100.00
2022-08-05T02:00:46.997Z,100.00
2022-08-05T02:03:31.276Z,100.00
2022-08-05T02:06:03.613Z,100.00
2022-08-05T02:08:58.254Z,100.00
2022-08-05T02:11:33.644Z,100.00
2022-08-05T02:14:04.132Z,100.00
2022-08-05T02:16:36.122Z,100.00
2022-08-05T02:19:13.015Z,100.00
2022-08-05T02:21:49.064Z,100.00
2022-08-05T02:24:23.114Z,100.00
2022-08-05T02:26:54.811Z,100.00
2022-08-05T02:29:58.178Z,100.00
2022-08-05T02:32:23.639Z,100.00
2022-08-05T02:34:57.978Z,100.00
2022-08-05T02:37:29.568Z,100.00
2022-08-05T02:39:59.884Z,100.00
2022-08-05T02:42:31.915Z,100.00
2022-08-05T02:45:02.738Z,100.00
2022-08-05T02:48:07.282Z,100.00
2022-08-05T02:50:19.958Z,100.00
2022-08-05T02:52:47.796Z,100.00
2022-08-05T02:55:17.571Z,100.00
2022-08-05T02:58:11.318Z,100.00
2022-08-05T03:00:41.224Z,100.00
2022-08-05T03:03:16.345Z,100.00
2022-08-05T03:06:53.645Z,100.00
2022-08-05T03:08:32.225Z,100.00
2022-08-05T03:11:01.302Z,100.00
2022-08-05T03:13:51.768Z,100.00
2022-08-05T03:16:31.662Z,100.00
2022-08-05T03:19:00.788Z,100.00
2022-08-05T03:21:33.196Z,100.00
2022-08-05T03:24:10.514Z,100.00
2022-08-05T03:26:41.179Z,100.00
2022-08-05T03:29:13.351Z,100.00
2022-08-05T03:31:55.644Z,100.00
2022-08-05T03:34:26.407Z,100.00
2022-08-05T03:36:54.932Z,100.00
2022-08-05T03:39:27.162Z,100.00
2022-08-05T03:41:56.389Z,100.00
2022-08-05T03:44:24.122Z,100.00
2022-08-05T03:46:51.605Z,100.00
2022-08-05T03:49:19.446Z,100.00
2022-08-05T03:52:48.602Z,100.00
2022-08-05T03:56:00.973Z,100.00
2022-08-05T03:57:42.246Z,100.00
2022-08-05T04:00:12.693Z,100.00
2022-08-05T04:02:57.545Z,100.00
2022-08-05T04:05:28.233Z,100.00
2022-08-05T04:08:03.589Z,100.00
2022-08-05T04:10:37.971Z,100.00
2022-08-05T04:13:07.040Z,100.00
2022-08-05T04:15:36.135Z,100.00
2022-08-05T04:18:07.006Z,100.00
2022-08-05T04:20:36.715Z,100.00
2022-08-05T04:23:05.532Z,100.00
2022-08-05T04:25:57.076Z,100.00
2022-08-05T04:28:21.137Z,100.00
2022-08-05T04:31:00.780Z,100.00
2022-08-05T04:33:36.398Z,100.00
2022-08-05T04:36:46.143Z,100.00
2022-08-05T04:39:05.662Z,100.00
2022-08-05T04:41:37.636Z,100.00
2022-08-05T04:44:09.586Z,100.00
2022-08-05T04:46:37.878Z,100.00
2022-08-05T04:49:05.813Z,100.00
2022-08-05T04:51:39.933Z,100.00
2022-08-05T04:54:11.983Z,100.00
2022-08-05T04:56:40.128Z,100.00
2022-08-05T04:59:22.023Z,100.00
2022-08-05T05:02:36.135Z,100.00
2022-08-05T05:04:47.619Z,100.00
2022-08-05T05:07:17.567Z,100.00
2022-08-05T05:09:46.634Z,100.00
2022-08-05T05:12:14.853Z,100.00
2022-08-05T05:14:49.269Z,100.00
2022-08-05T05:17:23.469Z,100.00
2022-08-05T05:19:54.349Z,100.00
2022-08-05T05:22:24.532Z,100.00
2022-08-05T05:24:58.550Z,100.00
2022-08-05T05:27:44.635Z,100.00
2022-08-05T05:30:15.301Z,100.00
2022-08-05T05:33:00.998Z,100.00
2022-08-05T05:35:37.582Z,100.00
2022-08-05T05:38:13.505Z,100.00
2022-08-05T05:40:48.122Z,100.00
2022-08-05T05:43:27.723Z,100.00
2022-08-05T05:46:13.671Z,100.00
2022-08-05T05:48:46.062Z,100.00
2022-08-05T05:51:22.395Z,100.00
2022-08-05T05:53:57.709Z,100.00
2022-08-05T05:56:31.861Z,100.00
2022-08-05T05:59:03.614Z,100.00
2022-08-05T06:01:37.078Z,100.00
2022-08-05T06:04:07.273Z,100.00
2022-08-05T06:06:35.553Z,100.00
2022-08-05T06:09:03.981Z,100.00
2022-08-05T06:11:33.270Z,100.00
2022-08-05T06:14:01.667Z,100.00
2022-08-05T06:16:36.672Z,100.00
2022-08-05T06:19:07.407Z,100.00
2022-08-05T06:21:38.325Z,100.00
2022-08-05T06:24:11.989Z,100.00
2022-08-05T06:26:51.250Z,100.00
2022-08-05T06:29:23.610Z,100.00
2022-08-05T06:31:54.361Z,100.00
2022-08-05T06:34:21.869Z,100.00
2022-08-05T06:36:57.381Z,100.00
2022-08-05T06:39:27.028Z,100.00
2022-08-05T06:41:58.729Z,100.00
2022-08-05T06:44:26.755Z,100.00
2022-08-05T06:46:54.521Z,100.00
2022-08-05T06:50:00.058Z,100.00
2022-08-05T06:52:36.618Z,100.00
2022-08-05T06:54:57.174Z,100.00
2022-08-05T06:57:57.677Z,100.00
2022-08-05T07:00:14.188Z,100.00
2022-08-05T07:02:53.607Z,100.00
2022-08-05T07:05:31.791Z,100.00
2022-08-05T07:08:10.930Z,100.00
2022-08-05T07:10:39.388Z,100.00
2022-08-05T07:13:58.698Z,100.00
2022-08-05T07:18:01.907Z,100.00
2022-08-05T07:20:29.834Z,100.00
2022-08-05T07:22:22.346Z,100.00
2022-08-05T07:24:56.977Z,100.00
2022-08-05T07:27:27.354Z,100.00
2022-08-05T07:30:25.408Z,100.00
2022-08-05T07:32:45.990Z,100.00
2022-08-05T07:36:01.554Z,100.00
2022-08-05T07:38:12.169Z,100.00
2022-08-05T07:40:44.387Z,100.00
2022-08-05T07:43:14.567Z,100.00
2022-08-05T07:45:57.565Z,100.00
2022-08-05T07:49:00.419Z,100.00
2022-08-05T07:51:23.681Z,100.00
2022-08-05T07:54:03.223Z,100.00
2022-08-05T07:56:49.018Z,100.00
2022-08-05T07:59:23.194Z,100.00
2022-08-05T08:02:00.249Z,100.00
2022-08-05T08:04:37.889Z,100.00
2022-08-05T08:07:07.468Z,100.00
2022-08-05T08:09:35.219Z,100.00
2022-08-05T08:12:12.531Z,100.00
2022-08-05T08:14:46.624Z,100.00
2022-08-05T08:17:16.405Z,100.00
2022-08-05T08:20:43.690Z,100.00
2022-08-05T08:22:32.867Z,100.00
2022-08-05T08:25:03.073Z,100.00
2022-08-05T08:27:39.874Z,100.00
2022-08-05T08:30:29.522Z,100.00
2022-08-05T08:33:04.501Z,100.00
2022-08-05T08:35:41.086Z,100.00
2022-08-05T08:38:16.451Z,100.00
2022-08-05T08:40:50.483Z,100.00
2022-08-05T08:45:18.291Z,99.74
2022-08-05T08:46:10.022Z,100.00
2022-08-05T08:49:04.160Z,100.00
2022-08-05T08:52:03.553Z,98.40
2022-08-05T08:54:22.238Z,99.01
2022-08-05T08:56:56.630Z,98.24
2022-08-05T08:59:27.761Z,99.12
2022-08-05T09:02:01.846Z,98.29
2022-08-05T09:04:31.155Z,96.33
2022-08-05T09:06:58.946Z,99.63
2022-08-05T09:09:34.712Z,100.00
2022-08-05T09:12:20.022Z,100.00
2022-08-05T09:14:57.115Z,100.00
2022-08-05T09:17:40.851Z,100.00
2022-08-05T09:20:36.299Z,100.00
2022-08-05T09:23:09.378Z,100.00
2022-08-05T09:26:02.468Z,100.00
2022-08-05T09:28:32.350Z,100.00
2022-08-05T09:32:38.702Z,100.00
2022-08-05T09:33:52.406Z,100.00
2022-08-05T09:36:27.789Z,100.00
2022-08-05T09:39:01.178Z,100.00
2022-08-05T09:41:33.187Z,100.00
2022-08-05T09:44:05.755Z,100.00
2022-08-05T09:46:34.972Z,100.00
2022-08-05T09:49:08.094Z,100.00
2022-08-05T09:51:50.051Z,100.00
2022-08-05T09:54:21.263Z,100.00
2022-08-05T09:56:57.595Z,100.00
2022-08-05T09:59:27.682Z,100.00
2022-08-05T10:01:58.137Z,100.00
2022-08-05T10:04:33.124Z,100.00
2022-08-05T10:07:19.640Z,99.91
2022-08-05T10:10:04.183Z,98.54
2022-08-05T10:12:49.628Z,97.61
2022-08-05T10:15:20.221Z,98.25
2022-08-05T10:18:03.688Z,97.50
2022-08-05T10:20:31.369Z,96.14
2022-08-05T10:23:02.095Z,96.79
2022-08-05T10:25:30.894Z,96.71
2022-08-05T10:28:13.635Z,96.24
2022-08-05T10:32:49.466Z,95.59
2022-08-05T10:33:35.133Z,95.91
2022-08-05T10:36:04.405Z,96.96
2022-08-05T10:38:33.677Z,97.00
2022-08-05T10:41:03.585Z,97.88
2022-08-05T10:43:35.946Z,98.58
2022-08-05T10:46:06.272Z,100.00
2022-08-05T10:48:39.620Z,100.00
2022-08-05T10:51:23.210Z,100.00
2022-08-05T10:53:58.366Z,100.00
2022-08-05T10:56:29.172Z,100.00
2022-08-05T10:59:07.357Z,100.00
2022-08-05T11:02:04.966Z,100.00
2022-08-05T11:04:32.917Z,100.00
2022-08-05T11:07:06.341Z,100.00
2022-08-05T11:09:48.845Z,100.00
2022-08-05T11:12:34.327Z,100.00
2022-08-05T11:15:19.445Z,98.44
2022-08-05T11:17:59.135Z,97.47
2022-08-05T11:20:42.044Z,99.35
2022-08-05T11:23:33.198Z,100.00
2022-08-05T11:26:28.503Z,98.70
2022-08-05T11:29:06.892Z,99.59
2022-08-05T11:31:56.648Z,100.00
2022-08-05T11:34:47.598Z,98.81
2022-08-05T11:38:28.778Z,97.19
2022-08-05T11:41:14.141Z,98.37
2022-08-05T11:44:01.105Z,96.35
2022-08-05T11:46:34.961Z,95.28
2022-08-05T11:49:04.277Z,94.57
2022-08-05T11:51:43.637Z,95.57
2022-08-05T11:54:24.426Z,93.74
2022-08-05T11:57:02.278Z,93.68
2022-08-05T11:59:49.459Z,93.41
2022-08-05T12:02:29.811Z,93.21
2022-08-05T12:05:07.066Z,92.60
2022-08-05T12:08:08.585Z,95.15
2022-08-05T12:10:43.053Z,93.96
2022-08-05T12:13:15.571Z,93.37
2022-08-05T12:15:45.161Z,91.03
2022-08-05T12:18:18.864Z,87.62
2022-08-05T12:20:49.550Z,88.37
2022-08-05T12:24:07.647Z,87.92
2022-08-05T12:31:07.229Z,87.48
2022-08-05T12:33:36.456Z,87.34
2022-08-05T12:36:09.412Z,85.55
2022-08-05T12:38:39.640Z,84.51
2022-08-05T12:41:13.193Z,83.15
2022-08-05T12:43:52.254Z,82.85
2022-08-05T12:46:29.404Z,85.06
2022-08-05T12:49:12.888Z,84.32
2022-08-05T12:52:13.457Z,85.45
2022-08-05T12:54:34.749Z,85.23
2022-08-05T12:57:03.880Z,85.80
2022-08-05T12:59:46.872Z,83.16
2022-08-05T13:02:22.030Z,82.27
2022-08-05T13:04:57.697Z,80.44
2022-08-05T13:10:19.869Z,78.89
2022-08-05T13:12:51.171Z,78.89
2022-08-05T13:15:35.862Z,78.27
2022-08-05T13:18:09.487Z,76.53
2022-08-05T13:20:40.421Z,76.95
2022-08-05T13:23:09.566Z,73.83
2022-08-05T13:25:52.701Z,74.76
2022-08-05T13:28:24.597Z,75.39
2022-08-05T13:30:53.329Z,71.99
2022-08-05T13:34:25.062Z,72.18
2022-08-05T13:36:09.127Z,72.74
2022-08-05T13:38:42.806Z,72.91
2022-08-05T13:41:10.757Z,69.86
2022-08-05T13:43:44.433Z,70.68
2022-08-05T13:46:14.295Z,68.15
2022-08-05T13:48:57.269Z,66.96
2022-08-05T13:51:29.698Z,63.15
2022-08-05T13:54:12.570Z,66.29
2022-08-05T13:56:45.415Z,67.95
2022-08-05T13:59:21.102Z,67.75
2022-08-05T14:01:57.489Z,69.85
2022-08-05T14:04:50.448Z,68.67
2022-08-05T14:07:25.689Z,66.53
2022-08-05T14:10:11.454Z,69.05
2022-08-05T14:12:39.382Z,68.94
2022-08-05T14:16:09.087Z,68.55
2022-08-05T14:17:59.800Z,70.24
2022-08-05T14:20:28.354Z,71.96
2022-08-05T14:22:56.000Z,70.16
2022-08-05T14:25:28.186Z,69.73
2022-08-05T14:27:55.888Z,70.79
2022-08-05T14:30:26.687Z,67.06
2022-08-05T14:32:56.673Z,68.11
2022-08-05T14:35:37.315Z,64.56
2022-08-05T14:38:31.688Z,64.45
2022-08-05T14:41:06.296Z,62.07
2022-08-05T14:43:53.956Z,56.23
2022-08-05T14:46:28.661Z,56.13
2022-08-05T14:48:58.210Z,55.66
2022-08-05T14:51:26.457Z,53.26
2022-08-05T14:54:26.236Z,55.36
2022-08-05T14:56:47.393Z,51.17
2022-08-05T14:59:15.415Z,54.71
2022-08-05T15:01:48.011Z,54.38
2022-08-05T15:04:17.233Z,60.23
2022-08-05T15:06:49.332Z,59.86
2022-08-05T15:09:50.616Z,57.71
2022-08-05T15:12:08.823Z,62.95
2022-08-05T15:14:48.033Z,62.79
2022-08-05T15:17:46.321Z,62.98
2022-08-05T15:20:06.274Z,64.60
2022-08-05T15:22:37.378Z,66.94
2022-08-05T15:25:11.877Z,65.08
2022-08-05T15:27:52.120Z,66.93
2022-08-05T15:30:20.266Z,67.49
2022-08-05T15:32:49.993Z,66.71
2022-08-05T15:35:17.551Z,58.34
2022-08-05T15:38:33.059Z,62.22
2022-08-05T15:41:01.109Z,58.01
2022-08-05T15:43:46.948Z,58.45
2022-08-05T15:46:40.252Z,57.31
2022-08-05T15:49:10.050Z,55.91
2022-08-05T15:52:13.574Z,58.92
2022-08-05T15:54:37.354Z,56.65
2022-08-05T15:57:07.342Z,55.80
2022-08-05T15:59:38.173Z,56.70
2022-08-05T16:02:09.444Z,58.55
2022-08-05T16:04:42.393Z,59.97
2022-08-05T16:07:10.811Z,58.13
2022-08-05T16:09:41.510Z,62.51
2022-08-05T16:12:09.961Z,64.23
2022-08-05T16:14:40.401Z,61.72
2022-08-05T16:17:07.953Z,62.55
2022-08-05T16:20:04.199Z,61.66
2022-08-05T16:22:27.787Z,61.62
2022-08-05T16:25:07.934Z,59.82
2022-08-05T16:27:47.164Z,60.74
2022-08-05T16:30:28.804Z,56.09
2022-08-05T16:32:57.316Z,54.94
2022-08-05T16:35:28.464Z,52.88
2022-08-05T16:38:16.768Z,50.13
2022-08-05T16:40:51.595Z,50.29
2022-08-05T16:43:23.717Z,50.35
2022-08-05T16:46:05.057Z,50.23
2022-08-05T16:48:37.389Z,49.95
2022-08-05T16:51:10.168Z,50.36
2022-08-05T16:54:05.366Z,53.74
2022-08-05T16:56:27.898Z,46.97
2022-08-05T16:58:55.714Z,49.08
2022-08-05T17:01:24.837Z,48.63
2022-08-05T17:03:52.684Z,49.53
2022-08-05T17:06:20.687Z,47.80
2022-08-05T17:08:54.463Z,48.63
2022-08-05T17:11:23.404Z,50.43
2022-08-05T17:14:00.162Z,49.24
2022-08-05T17:16:36.490Z,49.69
2022-08-05T17:19:07.003Z,51.59
2022-08-05T17:21:36.941Z,51.45
2022-08-05T17:24:14.317Z,50.87
2022-08-05T17:26:54.126Z,53.24
2022-08-05T17:29:33.236Z,54.84
2022-08-05T17:32:11.775Z,53.99
2022-08-05T17:34:47.733Z,53.15
2022-08-05T17:37:32.100Z,54.00
2022-08-05T17:40:04.374Z,53.79
2022-08-05T17:42:33.085Z,54.64
2022-08-05T17:45:17.873Z,54.57
2022-08-05T17:47:54.601Z,54.76
2022-08-05T17:50:27.708Z,54.15
2022-08-05T17:52:56.722Z,54.13
2022-08-05T17:55:34.703Z,55.66
2022-08-05T17:58:06.918Z,55.34
2022-08-05T18:00:35.884Z,56.23
2022-08-05T18:03:28.206Z,57.11
2022-08-05T18:06:04.336Z,57.38
2022-08-05T18:08:33.723Z,57.79
2022-08-05T18:11:03.256Z,58.62
2022-08-05T18:13:36.880Z,58.19
2022-08-05T18:16:13.360Z,58.26
2022-08-05T18:18:48.600Z,58.44
2022-08-05T18:21:21.105Z,60.51
2022-08-05T18:23:53.909Z,60.63
2022-08-05T18:26:21.953Z,61.10
2022-08-05T18:28:56.290Z,61.48
2022-08-05T18:31:24.398Z,61.48
2022-08-05T18:33:54.852Z,61.90
2022-08-05T18:36:27.996Z,61.79
2022-08-05T18:38:55.884Z,61.31
2022-08-05T18:41:53.444Z,61.89
2022-08-05T18:44:11.248Z,62.14
2022-08-05T18:46:41.208Z,62.24
2022-08-05T18:49:30.356Z,62.70
2022-08-05T18:52:15.909Z,64.81
2022-08-05T18:54:45.860Z,65.71
2022-08-05T18:57:15.333Z,67.49
2022-08-05T19:00:01.386Z,67.97
2022-08-05T19:02:30.927Z,68.25
2022-08-05T19:06:05.474Z,69.75
2022-08-05T19:07:49.815Z,71.35
2022-08-05T19:10:17.951Z,70.19
2022-08-05T19:12:46.110Z,75.88
2022-08-05T19:15:54.691Z,75.03
2022-08-05T19:18:09.787Z,76.58
2022-08-05T19:20:41.081Z,78.08
2022-08-05T19:24:04.324Z,77.82
2022-08-05T19:26:02.222Z,78.03
2022-08-05T19:28:30.556Z,79.57
2022-08-05T19:30:58.172Z,80.65
2022-08-05T19:33:35.375Z,81.14
2022-08-05T19:36:06.286Z,81.85
2022-08-05T19:38:35.884Z,82.89
2022-08-05T19:41:07.029Z,83.74
2022-08-05T19:44:05.777Z,83.04
2022-08-05T19:46:30.179Z,84.42
2022-08-05T19:49:00.948Z,85.13
2022-08-05T19:52:08.349Z,85.24
2022-08-05T19:54:25.594Z,84.66
2022-08-05T19:56:58.623Z,84.14
2022-08-05T19:59:56.744Z,84.61
2022-08-05T20:02:13.696Z,84.62
2022-08-05T20:04:43.114Z,86.12
2022-08-05T20:07:14.825Z,85.64
2022-08-05T20:09:53.600Z,85.31
2022-08-05T20:12:24.148Z,86.10
2022-08-05T20:14:52.727Z,86.95
2022-08-05T20:17:23.423Z,86.98
2022-08-05T20:19:56.552Z,87.06
2022-08-05T20:22:26.804Z,87.51
2022-08-05T20:24:55.554Z,87.71
2022-08-05T20:27:26.439Z,88.40
2022-08-05T20:29:57.803Z,88.85
2022-08-05T20:32:27.562Z,88.98
2022-08-05T20:34:55.369Z,89.10
2022-08-05T20:38:06.770Z,89.28
2022-08-05T20:40:13.071Z,89.91
2022-08-05T20:42:40.621Z,89.56
2022-08-05T20:45:11.695Z,88.69
2022-08-05T20:47:40.053Z,88.29
2022-08-05T20:50:09.369Z,88.44
2022-08-05T20:52:41.479Z,88.01
2022-08-05T20:55:56.866Z,87.55
2022-08-05T20:57:58.569Z,88.10
2022-08-05T21:00:44.126Z,88.38
2022-08-05T21:03:16.810Z,89.40
2022-08-05T21:05:54.558Z,89.12
2022-08-05T21:08:26.505Z,89.14
2022-08-05T21:11:10.169Z,89.23
2022-08-05T21:13:47.540Z,89.17
2022-08-05T21:16:23.444Z,88.75
2022-08-05T21:19:00.137Z,89.23
2022-08-05T21:21:39.787Z,89.16
2022-08-05T21:24:12.720Z,89.27
2022-08-05T21:26:41.439Z,88.96
2022-08-05T21:29:12.697Z,89.53
2022-08-05T21:31:44.470Z,90.13
2022-08-05T21:34:12.212Z,90.55
2022-08-05T21:36:39.742Z,91.59
2022-08-05T21:39:10.323Z,92.12
2022-08-05T21:41:42.014Z,91.93
2022-08-05T21:44:27.215Z,92.22
2022-08-05T21:46:58.028Z,92.22
2022-08-05T21:49:58.653Z,92.65
2022-08-05T21:52:22.082Z,93.40
2022-08-05T21:54:55.863Z,93.69
2022-08-05T21:57:32.433Z,93.38
2022-08-05T22:00:06.924Z,93.71
2022-08-05T22:02:43.009Z,93.83
2022-08-05T22:05:11.449Z,93.90
2022-08-05T22:07:58.504Z,94.16
2022-08-05T22:10:27.716Z,94.39
2022-08-05T22:12:57.537Z,94.63
2022-08-05T22:16:01.808Z,95.13
2022-08-05T22:18:15.884Z,95.05
2022-08-05T22:20:47.150Z,95.18
2022-08-05T22:24:00.961Z,94.70
2022-08-05T22:26:42.051Z,95.09
2022-08-05T22:29:18.855Z,95.26
2022-08-05T22:31:59.616Z,96.52
2022-08-05T22:34:31.117Z,97.06
2022-08-05T22:36:59.255Z,97.14
2022-08-05T22:39:31.154Z,95.90
2022-08-05T22:42:11.836Z,96.36
2022-08-05T22:44:42.780Z,96.48
2022-08-05T22:47:29.199Z,96.20
2022-08-05T22:50:19.446Z,96.57
2022-08-05T22:52:46.478Z,96.37
2022-08-05T22:55:18.623Z,96.04
2022-08-05T22:57:49.125Z,95.92
2022-08-05T23:00:20.913Z,95.87
2022-08-05T23:02:51.873Z,96.06
2022-08-05T23:05:22.195Z,96.15
2022-08-05T23:07:50.707Z,96.28
2022-08-05T23:10:19.850Z,96.90
2022-08-05T23:12:51.591Z,96.57
2022-08-05T23:15:27.118Z,96.40
2022-08-05T23:18:02.264Z,96.53
2022-08-05T23:20:32.336Z,96.82
2022-08-05T23:23:00.000Z,96.69
2022-08-05T23:25:51.862Z,96.83
2022-08-05T23:28:15.969Z,96.87
2022-08-05T23:30:53.388Z,96.71
2022-08-05T23:33:26.371Z,96.77
2022-08-05T23:36:13.628Z,96.47
2022-08-05T23:38:41.969Z,96.64
2022-08-05T23:41:10.425Z,97.55
2022-08-05T23:44:06.347Z,97.59
2022-08-05T23:46:25.916Z,97.60
2022-08-05T23:49:00.461Z,97.27
2022-08-05T23:51:46.448Z,98.44
2022-08-05T23:54:25.458Z,97.68
2022-08-05T23:56:55.209Z,97.58
2022-08-05T23:59:23.004Z,97.54
